Time;durP1;ratioP1;P1;durP2;ratioP2;P2;SDS_P1;SDS_P2;PMS_P1;PMS_P2;Temp;Humidity;BMP_temperature;BMP_pressure;BME280_temperature;BME280_humidity;BME280_pressure;Samples;Min_cycle;Max_cycle;Signal;HPM_P1;HPM_P2
2023/04/15 00:00:06;;;;;;;47.30;44.38;;;6.40;99.90;;;;;;5090711;28;20080;-71
2023/04/15 00:02:32;;;;;;;47.22;44.33;;;6.40;99.90;;;;;;5087883;28;20621;-71
2023/04/15 00:04:57;;;;;;;50.67;47.05;;;6.40;99.90;;;;;;5088451;28;20126;-71
2023/04/15 00:07:23;;;;;;;49.15;46.35;;;6.40;99.90;;;;;;5090342;28;20027;-71
2023/04/15 00:09:49;;;;;;;51.72;48.90;;;6.40;99.90;;;;;;5087513;28;20036;-71
2023/04/15 00:12:15;;;;;;;53.25;50.08;;;6.30;99.90;;;;;;5086392;28;20044;-71
2023/04/15 00:14:40;;;;;;;53.97;50.50;;;6.30;99.90;;;;;;5123143;27;20043;-71
2023/04/15 00:17:06;;;;;;;48.75;46.15;;;6.30;99.90;;;;;;5070950;28;20039;-71
2023/04/15 00:19:32;;;;;;;53.17;50.15;;;6.30;99.90;;;;;;5102435;28;20043;-71
2023/04/15 00:21:59;;;;;;;57.67;54.38;;;6.30;99.90;;;;;;5122073;27;20092;-71
2023/04/15 00:24:25;;;;;;;56.90;53.30;;;6.30;99.90;;;;;;5086369;28;20584;-71
2023/04/15 00:26:51;;;;;;;59.97;56.67;;;6.30;99.90;;;;;;5086819;28;20114;-71
2023/04/15 00:29:16;;;;;;;59.42;56.10;;;6.30;99.90;;;;;;5087908;28;20044;-71
2023/04/15 00:31:42;;;;;;;63.25;59.75;;;6.20;99.90;;;;;;5089371;28;20494;-71
2023/04/15 00:34:08;;;;;;;59.90;56.58;;;6.20;99.90;;;;;;5088397;28;20035;-71
2023/04/15 00:36:34;;;;;;;62.53;59.10;;;6.30;99.90;;;;;;5087319;28;20043;-71
2023/04/15 00:39:00;;;;;;;64.07;60.17;;;6.30;99.90;;;;;;5087878;28;20047;-71
2023/04/15 00:41:25;;;;;;;64.57;60.90;;;6.30;99.90;;;;;;5088902;28;20432;-71
2023/04/15 00:43:51;;;;;;;62.08;58.55;;;6.30;99.90;;;;;;5089740;28;20115;-71
2023/04/15 00:46:19;;;;;;;60.72;57.15;;;6.30;99.90;;;;;;5105402;28;20028;-71
2023/04/15 00:48:46;;;;;;;62.47;58.67;;;6.30;99.90;;;;;;5071801;28;20043;-71
2023/04/15 00:51:12;;;;;;;65.82;61.70;;;6.30;99.90;;;;;;5087357;28;20394;-71
2023/04/15 00:53:38;;;;;;;63.00;59.47;;;6.30;99.90;;;;;;5071862;28;20047;-71
2023/04/15 00:56:05;;;;;;;64.32;60.63;;;6.30;99.90;;;;;;5074500;28;20145;-71
2023/04/15 00:58:31;;;;;;;65.53;61.92;;;6.30;99.90;;;;;;5070764;28;20128;-71
2023/04/15 01:00:57;;;;;;;65.55;61.88;;;6.30;99.90;;;;;;5088079;28;20179;-71
2023/04/15 01:03:23;;;;;;;69.35;65.50;;;6.20;99.90;;;;;;5090238;28;20034;-71
2023/04/15 01:05:49;;;;;;;73.55;69.60;;;6.20;99.90;;;;;;5087961;28;20036;-71
2023/04/15 01:08:14;;;;;;;78.43;74.03;;;6.20;99.90;;;;;;5071313;28;20045;-71
2023/04/15 01:10:41;;;;;;;89.97;85.10;;;6.10;99.90;;;;;;5087436;28;20082;-71
2023/04/15 01:13:06;;;;;;;95.03;90.35;;;6.00;99.90;;;;;;5088042;28;20104;-71
2023/04/15 01:15:34;;;;;;;89.55;85.13;;;6.00;99.90;;;;;;5084304;28;20733;-71
2023/04/15 01:18:01;;;;;;;88.28;83.80;;;6.00;99.90;;;;;;5089802;27;20043;-71
2023/04/15 01:20:28;;;;;;;82.68;78.13;;;6.00;99.90;;;;;;5087820;28;20043;-71
2023/04/15 01:22:54;;;;;;;83.30;78.88;;;6.00;99.90;;;;;;5088968;28;20156;-71
2023/04/15 01:25:31;;;;;;;85.40;80.50;;;6.00;99.90;;;;;;5086341;28;20074;-71
2023/04/15 01:27:58;;;;;;;83.35;78.95;;;6.00;99.90;;;;;;5086954;28;20050;-71
2023/04/15 01:30:24;;;;;;;88.50;83.88;;;6.00;99.90;;;;;;5084993;28;20065;-72
2023/04/15 01:32:51;;;;;;;93.60;88.75;;;5.90;99.90;;;;;;5086875;28;20035;-71
2023/04/15 01:35:17;;;;;;;93.68;88.68;;;5.90;99.90;;;;;;5088715;28;20059;-71
2023/04/15 01:37:42;;;;;;;92.38;87.50;;;5.80;99.90;;;;;;5088722;28;20032;-71
2023/04/15 01:40:08;;;;;;;99.45;94.50;;;5.70;99.90;;;;;;5105393;28;20035;-71
2023/04/15 01:42:36;;;;;;;98.07;93.05;;;5.70;99.90;;;;;;5066523;28;20040;-71
2023/04/15 01:45:02;;;;;;;103.80;98.68;;;5.70;99.90;;;;;;5088937;28;20044;-71
2023/04/15 01:47:28;;;;;;;97.75;92.72;;;5.70;99.90;;;;;;5085895;28;20036;-71
2023/04/15 01:49:53;;;;;;;100.97;95.65;;;5.70;99.90;;;;;;5086812;28;20058;-71
2023/04/15 01:52:19;;;;;;;96.25;91.15;;;5.60;99.90;;;;;;5089698;28;20099;-71
2023/04/15 01:54:45;;;;;;;106.50;100.60;;;5.60;99.90;;;;;;5087312;28;20031;-71
2023/04/15 01:57:11;;;;;;;102.82;97.18;;;5.60;99.90;;;;;;5107174;27;20127;-71
2023/04/15 01:59:37;;;;;;;100.53;95.03;;;5.50;99.90;;;;;;5090341;28;20046;-71
2023/04/15 02:02:03;;;;;;;102.13;96.93;;;5.50;99.90;;;;;;5112745;27;20047;-71
2023/04/15 02:04:29;;;;;;;101.38;96.18;;;5.40;99.90;;;;;;5124044;27;20035;-71
2023/04/15 02:06:54;;;;;;;96.20;91.18;;;5.50;99.90;;;;;;5091365;27;20122;-71
2023/04/15 02:09:20;;;;;;;99.13;93.85;;;5.40;99.90;;;;;;5074965;28;20040;-71
2023/04/15 02:11:45;;;;;;;93.82;88.88;;;5.40;99.90;;;;;;5075259;28;20171;-71
2023/04/15 02:14:11;;;;;;;96.43;91.13;;;5.40;99.90;;;;;;5090980;28;20447;-71
2023/04/15 02:16:37;;;;;;;94.22;89.35;;;5.40;99.90;;;;;;5074739;28;20035;-71
2023/04/15 02:19:03;;;;;;;95.25;90.10;;;5.40;99.90;;;;;;5091140;28;20071;-71
2023/04/15 02:21:29;;;;;;;92.75;87.85;;;5.40;99.90;;;;;;5075786;28;20039;-71
2023/04/15 02:23:56;;;;;;;93.07;88.13;;;5.30;99.90;;;;;;5076227;28;20172;-71
2023/04/15 02:26:21;;;;;;;93.90;89.10;;;5.20;99.90;;;;;;5090012;28;20043;-71
2023/04/15 02:28:50;;;;;;;93.85;88.65;;;5.10;99.90;;;;;;5086921;28;20054;-71
2023/04/15 02:31:16;;;;;;;96.00;91.05;;;5.00;99.90;;;;;;5091913;28;20500;-71
2023/04/15 02:33:42;;;;;;;98.85;93.72;;;4.90;99.90;;;;;;5090406;28;20039;-71
2023/04/15 02:36:08;;;;;;;93.75;88.75;;;4.80;99.90;;;;;;5072448;28;20467;-71
2023/04/15 02:38:34;;;;;;;98.40;93.47;;;4.80;99.90;;;;;;5093331;28;20047;-71
2023/04/15 02:41:00;;;;;;;97.28;92.05;;;4.70;99.90;;;;;;5090225;28;20054;-71
2023/04/15 02:43:26;;;;;;;100.00;94.70;;;4.70;99.90;;;;;;5108872;28;20044;-71
2023/04/15 02:45:52;;;;;;;102.43;96.63;;;4.60;99.90;;;;;;5091193;28;20039;-71
2023/04/15 02:48:19;;;;;;;95.32;90.15;;;4.70;99.90;;;;;;5091635;28;20118;-72
2023/04/15 02:50:45;;;;;;;95.32;90.22;;;4.60;99.90;;;;;;5088866;28;20043;-71
2023/04/15 02:53:12;;;;;;;89.68;84.90;;;4.60;99.90;;;;;;5088544;28;20074;-71
2023/04/15 02:55:38;;;;;;;95.80;90.78;;;4.60;99.90;;;;;;5075542;27;20039;-71
2023/04/15 02:58:03;;;;;;;98.38;93.40;;;4.60;99.90;;;;;;5074868;28;20066;-72
2023/04/15 03:00:29;;;;;;;98.13;92.93;;;4.60;99.90;;;;;;5090012;28;20506;-72
2023/04/15 03:03:04;;;;;;;98.80;93.88;;;4.60;99.90;;;;;;5107077;28;20040;-71
2023/04/15 03:05:30;;;;;;;98.28;93.07;;;4.60;99.90;;;;;;5073523;28;20039;-72
2023/04/15 03:07:56;;;;;;;98.85;93.63;;;4.50;99.90;;;;;;5090780;28;20047;-71
2023/04/15 03:10:21;;;;;;;100.82;95.78;;;4.50;99.90;;;;;;5090227;28;20038;-71
2023/04/15 03:12:47;;;;;;;97.05;92.05;;;4.40;99.90;;;;;;5074041;28;20551;-71
2023/04/15 03:15:13;;;;;;;92.85;87.75;;;4.30;99.90;;;;;;5093249;28;20039;-71
2023/04/15 03:17:39;;;;;;;95.60;90.57;;;4.30;99.90;;;;;;5074243;28;20593;-72
2023/04/15 03:20:06;;;;;;;95.95;90.90;;;4.20;99.90;;;;;;5090609;27;20043;-71
2023/04/15 03:22:32;;;;;;;107.95;102.35;;;4.20;99.90;;;;;;5088201;28;20046;-72
2023/04/15 03:24:57;;;;;;;113.40;107.43;;;4.10;99.90;;;;;;5089288;27;20481;-71
2023/04/15 03:27:24;;;;;;;108.70;103.18;;;4.10;99.90;;;;;;5076162;28;20036;-71
2023/04/15 03:29:50;;;;;;;109.43;103.78;;;4.10;99.90;;;;;;5106348;28;20047;-72
2023/04/15 03:32:16;;;;;;;102.60;97.10;;;4.00;99.90;;;;;;5072543;28;20046;-71
2023/04/15 03:34:42;;;;;;;113.00;106.93;;;3.90;99.90;;;;;;5087505;28;20043;-72
2023/04/15 03:37:08;;;;;;;114.55;108.45;;;3.80;99.90;;;;;;5073703;28;20046;-72
2023/04/15 03:39:34;;;;;;;111.72;105.75;;;3.80;99.90;;;;;;5091249;27;20040;-72
2023/04/15 03:42:00;;;;;;;118.55;112.40;;;3.70;99.90;;;;;;5088535;28;20035;-72
2023/04/15 03:44:26;;;;;;;126.15;119.35;;;3.70;99.90;;;;;;5107450;28;20207;-72
2023/04/15 03:46:52;;;;;;;123.65;117.40;;;3.70;99.90;;;;;;5073792;28;20043;-71
2023/04/15 03:49:18;;;;;;;113.80;107.45;;;3.60;99.90;;;;;;5072743;28;20032;-72
2023/04/15 03:51:44;;;;;;;99.38;93.60;;;3.60;99.90;;;;;;5121207;27;20047;-71
2023/04/15 03:54:11;;;;;;;104.93;98.85;;;3.60;99.90;;;;;;5106072;28;20028;-71
2023/04/15 03:56:37;;;;;;;102.60;96.82;;;3.60;99.90;;;;;;5090682;28;20070;-71
2023/04/15 03:59:03;;;;;;;106.20;100.70;;;3.60;99.90;;;;;;5087722;28;20043;-71
2023/04/15 04:01:28;;;;;;;105.40;99.60;;;3.50;99.90;;;;;;5087925;28;20039;-71
2023/04/15 04:03:54;;;;;;;101.53;95.97;;;3.40;99.90;;;;;;5105642;28;20036;-71
2023/04/15 04:06:20;;;;;;;101.80;96.07;;;3.30;99.90;;;;;;5075128;28;20534;-71
2023/04/15 04:08:46;;;;;;;101.38;95.65;;;3.30;99.90;;;;;;5122378;27;20031;-72
2023/04/15 04:11:11;;;;;;;97.10;91.13;;;3.20;99.90;;;;;;5085878;28;20036;-71
2023/04/15 04:13:37;;;;;;;93.22;87.13;;;3.20;99.90;;;;;;5088571;27;20043;-71
2023/04/15 04:16:03;;;;;;;83.78;78.10;;;3.20;99.90;;;;;;5107082;28;20051;-71
2023/04/15 04:18:30;;;;;;;77.53;72.13;;;3.30;99.90;;;;;;5089547;28;20035;-71
2023/04/15 04:20:56;;;;;;;76.55;70.63;;;3.20;99.90;;;;;;5087481;28;20031;-71
2023/04/15 04:23:21;;;;;;;73.32;67.72;;;3.20;99.90;;;;;;5091840;28;20097;-71
2023/04/15 04:25:47;;;;;;;74.20;68.05;;;3.20;99.90;;;;;;5089353;28;20677;-71
2023/04/15 04:28:13;;;;;;;74.63;68.95;;;3.20;99.90;;;;;;5073424;28;20082;-71
2023/04/15 04:30:39;;;;;;;76.32;70.53;;;3.20;99.90;;;;;;5091335;27;20042;-71
2023/04/15 04:33:05;;;;;;;75.97;69.97;;;3.20;99.90;;;;;;5091657;28;20520;-71
2023/04/15 04:35:33;;;;;;;76.40;70.95;;;3.10;99.90;;;;;;5087060;28;20048;-71
2023/04/15 04:37:59;;;;;;;78.22;72.43;;;3.10;99.90;;;;;;5121222;27;20047;-71
2023/04/15 04:40:26;;;;;;;78.97;73.15;;;3.00;99.90;;;;;;5089507;28;20047;-71
2023/04/15 04:42:52;;;;;;;75.72;70.15;;;3.00;99.90;;;;;;5087388;28;20425;-71
2023/04/15 04:45:18;;;;;;;75.22;69.68;;;2.90;99.90;;;;;;5073688;28;20047;-71
2023/04/15 04:47:43;;;;;;;77.18;71.05;;;2.90;99.90;;;;;;5087225;28;20043;-72
2023/04/15 04:50:09;;;;;;;75.75;69.72;;;2.90;99.90;;;;;;5071083;28;20031;-72
2023/04/15 04:52:35;;;;;;;74.75;68.63;;;2.90;99.90;;;;;;5089811;27;20490;-71
2023/04/15 04:55:01;;;;;;;73.57;67.30;;;3.00;99.90;;;;;;5092507;27;20039;-71
2023/04/15 04:57:26;;;;;;;73.45;66.97;;;3.00;99.90;;;;;;5083864;28;20039;-71
2023/04/15 04:59:52;;;;;;;74.63;67.93;;;3.00;99.90;;;;;;5068906;28;20038;-71
2023/04/15 05:02:18;;;;;;;74.32;68.00;;;3.00;99.90;;;;;;5082530;28;20094;-72
2023/04/15 05:04:43;;;;;;;74.10;67.63;;;3.00;99.90;;;;;;5089533;28;20112;-71
2023/04/15 05:07:09;;;;;;;72.72;66.57;;;3.10;99.90;;;;;;5089983;28;20039;-72
2023/04/15 05:09:35;;;;;;;75.20;68.45;;;3.10;99.90;;;;;;5087067;28;20046;-72
2023/04/15 05:12:02;;;;;;;77.00;69.88;;;3.20;99.90;;;;;;5089197;28;20400;-71
2023/04/15 05:14:28;;;;;;;74.75;68.38;;;3.20;99.90;;;;;;5071826;28;20047;-72
2023/04/15 05:16:53;;;;;;;74.05;67.53;;;3.30;99.90;;;;;;5071403;28;20556;-71
2023/04/15 05:19:19;;;;;;;75.40;68.22;;;3.30;99.90;;;;;;5072519;28;20067;-72
2023/04/15 05:21:45;;;;;;;74.25;67.20;;;3.50;99.90;;;;;;5072311;28;20411;-72
2023/04/15 05:24:10;;;;;;;74.53;67.72;;;3.60;99.90;;;;;;5072025;28;20035;-72
2023/04/15 05:26:36;;;;;;;74.47;67.78;;;3.60;99.90;;;;;;5088388;28;20039;-72
2023/04/15 05:29:02;;;;;;;73.65;66.75;;;3.80;99.90;;;;;;5101149;28;20052;-71
2023/04/15 05:31:27;;;;;;;72.82;66.68;;;3.90;99.90;;;;;;5070215;28;20047;-72
2023/04/15 05:33:53;;;;;;;73.85;67.07;;;4.00;99.90;;;;;;5088083;28;20144;-71
2023/04/15 05:36:18;;;;;;;74.85;68.22;;;4.20;99.90;;;;;;5070406;28;20045;-71
2023/04/15 05:38:44;;;;;;;72.28;65.65;;;4.30;99.90;;;;;;5089229;28;20047;-71
2023/04/15 05:41:10;;;;;;;72.50;65.68;;;4.40;99.90;;;;;;5086372;28;20044;-72
2023/04/15 05:43:36;;;;;;;70.97;64.47;;;4.50;99.90;;;;;;5088516;28;20043;-71
2023/04/15 05:46:01;;;;;;;70.10;64.18;;;4.60;99.90;;;;;;5103692;28;20142;-72
2023/04/15 05:48:27;;;;;;;66.75;61.17;;;4.70;99.90;;;;;;5087369;28;20036;-71
2023/04/15 05:50:52;;;;;;;66.07;60.08;;;4.80;99.90;;;;;;5102741;28;20491;-71
2023/04/15 05:53:18;;;;;;;64.05;58.38;;;4.80;99.90;;;;;;5087942;28;20079;-72
2023/04/15 05:55:44;;;;;;;61.42;55.92;;;4.90;99.90;;;;;;5071359;28;20047;-72
2023/04/15 05:58:10;;;;;;;61.47;56.28;;;4.90;99.90;;;;;;5089978;28;20394;-72
2023/04/15 06:00:35;;;;;;;60.92;55.80;;;5.00;99.90;;;;;;5088321;28;20059;-72
2023/04/15 06:03:01;;;;;;;60.42;55.33;;;5.10;99.90;;;;;;5085551;28;20040;-71
2023/04/15 06:05:27;;;;;;;62.58;57.10;;;5.20;99.90;;;;;;5069444;28;20127;-72
2023/04/15 06:07:52;;;;;;;61.95;56.97;;;5.30;99.90;;;;;;5089875;28;20102;-72
2023/04/15 06:10:18;;;;;;;61.08;56.13;;;5.50;99.90;;;;;;5084545;28;20372;-72
2023/04/15 06:12:43;;;;;;;62.35;57.47;;;5.60;99.90;;;;;;5071459;28;20047;-72
2023/04/15 06:15:10;;;;;;;65.00;60.10;;;5.80;99.90;;;;;;5087635;28;20122;-71
2023/04/15 06:17:36;;;;;;;64.15;59.15;;;6.00;99.90;;;;;;5070052;28;20047;-72
2023/04/15 06:20:02;;;;;;;63.80;58.70;;;6.10;99.90;;;;;;5103383;28;20494;-71
2023/04/15 06:22:27;;;;;;;63.92;58.88;;;6.30;99.90;;;;;;5085132;28;20039;-71
2023/04/15 06:24:53;;;;;;;67.75;62.63;;;6.40;99.90;;;;;;5070461;28;20487;-71
2023/04/15 06:27:19;;;;;;;67.15;62.10;;;6.60;99.90;;;;;;5122439;27;20039;-71
2023/04/15 06:29:45;;;;;;;67.32;62.60;;;6.70;99.90;;;;;;5089665;28;20093;-71
2023/04/15 06:32:11;;;;;;;65.20;60.25;;;6.90;99.90;;;;;;5068579;28;20038;-71
2023/04/15 06:34:37;;;;;;;65.53;60.78;;;7.10;99.90;;;;;;5087242;28;20621;-71
2023/04/15 06:37:03;;;;;;;67.05;62.53;;;7.30;99.90;;;;;;5080657;28;20050;-71
2023/04/15 06:39:28;;;;;;;61.95;57.65;;;7.40;99.90;;;;;;5070571;28;20035;-72
2023/04/15 06:41:55;;;;;;;67.00;62.47;;;7.50;99.90;;;;;;5087463;28;20047;-71
2023/04/15 06:44:21;;;;;;;64.00;59.90;;;7.70;99.90;;;;;;5071844;27;20043;-71
2023/04/15 06:46:46;;;;;;;66.45;62.22;;;7.80;99.90;;;;;;5075955;28;20538;-72
2023/04/15 06:49:12;;;;;;;71.57;66.97;;;7.90;99.90;;;;;;5086920;27;20535;-72
2023/04/15 06:51:37;;;;;;;55.45;51.78;;;8.10;99.90;;;;;;5104419;28;20027;-71
2023/04/15 06:54:05;;;;;;;54.42;50.72;;;8.20;99.90;;;;;;5092842;27;20441;-72
2023/04/15 06:56:33;;;;;;;60.72;56.70;;;8.40;99.90;;;;;;5106455;27;20054;-71
2023/04/15 06:58:59;;;;;;;57.10;52.85;;;8.50;99.90;;;;;;5074012;27;20475;-71
2023/04/15 07:01:25;;;;;;;64.45;60.30;;;8.70;99.90;;;;;;5076826;27;20039;-72
2023/04/15 07:03:51;;;;;;;70.03;65.78;;;8.80;99.90;;;;;;5090724;28;20040;-72
2023/04/15 07:06:17;;;;;;;71.63;67.28;;;8.90;99.90;;;;;;5061138;27;20044;-72
2023/04/15 07:08:42;;;;;;;71.00;66.70;;;9.00;99.90;;;;;;5053809;27;20484;-72
2023/04/15 07:11:08;;;;;;;92.80;87.63;;;9.10;99.90;;;;;;5076544;28;20691;-72
2023/04/15 07:13:34;;;;;;;92.60;87.72;;;9.20;99.90;;;;;;5066679;28;20043;-71
2023/04/15 07:15:59;;;;;;;103.68;98.22;;;9.10;99.90;;;;;;5067866;28;20044;-71
2023/04/15 07:18:25;;;;;;;108.30;103.03;;;9.20;99.90;;;;;;5083762;28;20105;-71
2023/04/15 07:20:51;;;;;;;76.38;72.68;;;9.20;99.90;;;;;;5082252;28;20043;-71
2023/04/15 07:23:17;;;;;;;94.63;89.68;;;9.30;99.90;;;;;;5078868;28;20040;-71
2023/04/15 07:25:43;;;;;;;72.97;69.00;;;9.30;99.90;;;;;;5077721;28;20111;-71
2023/04/15 07:28:08;;;;;;;90.53;85.93;;;9.40;99.90;;;;;;5066643;27;20496;-71
2023/04/15 07:30:34;;;;;;;61.47;57.92;;;9.40;99.90;;;;;;5075590;28;20092;-71
2023/04/15 07:33:01;;;;;;;62.75;59.25;;;9.50;99.90;;;;;;5074219;27;20042;-71
2023/04/15 07:35:28;;;;;;;58.80;55.25;;;9.60;99.90;;;;;;5091278;28;20043;-71
2023/04/15 07:37:53;;;;;;;60.63;57.28;;;9.70;99.90;;;;;;5088057;28;20080;-71
2023/04/15 07:40:19;;;;;;;60.63;57.20;;;9.80;99.90;;;;;;5086264;28;20475;-72
2023/04/15 07:42:45;;;;;;;63.70;60.10;;;9.90;99.90;;;;;;5065948;28;20074;-71
2023/04/15 07:45:11;;;;;;;63.25;59.55;;;9.90;99.90;;;;;;5072183;28;20040;-71
2023/04/15 07:47:37;;;;;;;57.22;53.92;;;10.00;99.90;;;;;;5087584;28;20411;-72
2023/04/15 07:50:03;;;;;;;58.58;55.35;;;10.00;99.90;;;;;;5091813;27;20031;-72
2023/04/15 07:52:28;;;;;;;62.63;59.33;;;10.10;99.90;;;;;;5088338;28;20035;-72
2023/04/15 07:54:54;;;;;;;67.55;63.95;;;10.20;99.90;;;;;;5090566;28;20124;-72
2023/04/15 07:57:20;;;;;;;72.30;68.47;;;10.20;99.90;;;;;;5090164;28;20120;-72
2023/04/15 07:59:45;;;;;;;70.50;66.93;;;10.20;99.90;;;;;;5080194;28;20588;-72
2023/04/15 08:02:11;;;;;;;75.47;71.68;;;10.20;99.90;;;;;;5090054;28;20039;-72
2023/04/15 08:04:37;;;;;;;82.38;78.03;;;10.20;99.90;;;;;;5089597;28;20383;-71
2023/04/15 08:07:03;;;;;;;89.60;85.10;;;10.10;99.90;;;;;;5070775;28;20633;-71
2023/04/15 08:09:29;;;;;;;92.85;88.25;;;10.20;99.90;;;;;;5107023;28;20036;-71
2023/04/15 08:11:55;;;;;;;84.10;80.00;;;10.20;99.90;;;;;;5088216;28;20031;-71
2023/04/15 08:14:21;;;;;;;75.68;72.00;;;10.20;99.90;;;;;;5087715;28;20041;-71
2023/04/15 08:16:47;;;;;;;71.80;68.00;;;10.10;99.90;;;;;;5099478;28;20047;-71
2023/04/15 08:19:13;;;;;;;73.07;69.47;;;10.10;99.90;;;;;;5072872;28;20038;-71
2023/04/15 08:21:39;;;;;;;60.17;57.05;;;10.10;99.90;;;;;;5104219;27;20114;-71
2023/04/15 08:24:05;;;;;;;59.35;56.25;;;10.00;99.90;;;;;;5086386;28;20572;-71
2023/04/15 08:26:31;;;;;;;67.32;63.75;;;10.00;99.90;;;;;;5088423;28;20150;-71
2023/04/15 08:28:57;;;;;;;63.15;59.80;;;10.00;99.90;;;;;;5087671;28;20467;-71
2023/04/15 08:31:25;;;;;;;60.50;57.13;;;9.90;99.90;;;;;;5081738;28;20159;-71
2023/04/15 08:33:51;;;;;;;63.58;60.17;;;9.80;99.90;;;;;;5087783;27;20043;-71
2023/04/15 08:36:17;;;;;;;64.80;61.40;;;9.70;99.90;;;;;;5088597;28;20035;-71
2023/04/15 08:38:44;;;;;;;69.60;66.00;;;9.60;99.90;;;;;;5089364;28;20098;-71
2023/04/15 08:41:18;;;;;;;62.17;58.85;;;9.60;99.90;;;;;;5088017;28;20058;-71
2023/04/15 08:43:53;;;;;;;62.45;59.30;;;9.60;99.90;;;;;;5105238;28;20407;-71
2023/04/15 08:46:20;;;;;;;62.47;59.28;;;9.60;99.90;;;;;;5106315;28;20391;-71
2023/04/15 08:48:47;;;;;;;58.53;55.45;;;9.60;99.90;;;;;;5080605;27;20212;-71
2023/04/15 08:51:15;;;;;;;76.70;72.25;;;9.60;99.90;;;;;;5086220;28;20118;-71
2023/04/15 08:53:42;;;;;;;55.40;52.50;;;9.60;99.90;;;;;;5070811;28;20046;-71
2023/04/15 08:56:09;;;;;;;47.65;45.15;;;9.60;99.90;;;;;;5088768;28;20043;-71
2023/04/15 08:58:35;;;;;;;58.00;55.13;;;9.60;99.90;;;;;;5071680;28;20407;-71
2023/04/15 09:01:02;;;;;;;51.45;48.95;;;9.70;99.90;;;;;;5106008;28;20027;-71
2023/04/15 09:03:28;;;;;;;44.92;42.45;;;9.80;99.90;;;;;;5085426;28;20036;-71
2023/04/15 09:05:54;;;;;;;48.97;46.42;;;9.90;99.90;;;;;;5088657;28;20040;-71
2023/04/15 09:08:19;;;;;;;37.78;35.58;;;10.00;99.90;;;;;;5079092;28;20035;-71
2023/04/15 09:10:45;;;;;;;35.00;32.80;;;10.00;99.90;;;;;;5090005;28;20102;-71
2023/04/15 09:13:11;;;;;;;34.17;32.08;;;9.90;99.90;;;;;;5089401;28;20077;-71
2023/04/15 09:15:37;;;;;;;36.92;34.92;;;9.80;99.90;;;;;;5104876;28;20043;-71
2023/04/15 09:18:04;;;;;;;37.47;35.17;;;9.70;99.90;;;;;;5086413;28;20362;-71
2023/04/15 09:20:37;;;;;;;37.00;35.03;;;9.60;99.90;;;;;;5085973;28;20391;-71
2023/04/15 09:23:12;;;;;;;44.22;41.78;;;9.50;99.90;;;;;;5073163;28;20126;-71
2023/04/15 09:25:41;;;;;;;47.95;45.35;;;9.50;99.90;;;;;;5078427;28;20410;-71
2023/04/15 09:28:07;;;;;;;43.88;41.67;;;9.40;99.90;;;;;;5070049;28;20055;-71
2023/04/15 09:30:34;;;;;;;60.58;57.33;;;9.50;99.90;;;;;;5086956;28;20054;-71
2023/04/15 09:33:01;;;;;;;58.13;55.10;;;9.50;99.90;;;;;;5086629;28;20269;-71
2023/04/15 09:35:30;;;;;;;57.70;54.80;;;9.60;99.90;;;;;;5070728;28;20066;-71
2023/04/15 09:38:03;;;;;;;54.83;52.08;;;9.80;99.90;;;;;;5087232;28;20440;-71
2023/04/15 09:40:40;;;;;;;51.58;48.97;;;10.00;99.90;;;;;;5087060;28;20529;-71
2023/04/15 09:43:07;;;;;;;70.90;66.78;;;10.20;99.90;;;;;;5077749;28;20054;-71
2023/04/15 09:45:35;;;;;;;35.85;33.85;;;10.40;99.90;;;;;;5087709;28;20044;-71
2023/04/15 09:48:20;;;;;;;33.83;31.92;;;10.50;99.90;;;;;;5087013;28;20046;-71
2023/04/15 09:50:47;;;;;;;31.40;29.67;;;10.60;99.90;;;;;;5086274;28;20040;-71
2023/04/15 09:53:22;;;;;;;31.00;29.20;;;10.60;99.90;;;;;;5079471;28;20031;-71
2023/04/15 09:55:53;;;;;;;35.17;33.30;;;10.60;99.90;;;;;;5089011;28;20569;-71
2023/04/15 09:58:27;;;;;;;32.78;31.13;;;10.70;99.90;;;;;;5076536;28;20037;-71
2023/04/15 10:00:55;;;;;;;35.58;33.70;;;10.80;99.90;;;;;;5088589;28;20433;-71
2023/04/15 10:03:26;;;;;;;35.22;33.40;;;10.90;99.90;;;;;;5085833;28;20031;-71
2023/04/15 10:05:55;;;;;;;30.25;28.75;;;11.10;99.90;;;;;;5084932;28;20035;-71
2023/04/15 10:08:23;;;;;;;24.75;23.35;;;11.20;99.90;;;;;;5072112;28;20166;-71
2023/04/15 10:10:53;;;;;;;23.45;22.02;;;11.30;99.90;;;;;;5079015;28;20050;-71
2023/04/15 10:13:28;;;;;;;25.33;23.92;;;11.20;99.90;;;;;;5072387;28;20487;-71
2023/04/15 10:15:57;;;;;;;26.02;24.58;;;11.20;99.90;;;;;;5085970;28;20043;-71
2023/04/15 10:18:25;;;;;;;22.88;21.67;;;11.20;99.90;;;;;;5088319;28;20250;-71
2023/04/15 10:20:52;;;;;;;23.55;22.25;;;11.20;99.90;;;;;;5065542;28;20043;-71
2023/04/15 10:23:19;;;;;;;21.00;19.70;;;11.20;99.90;;;;;;5094145;28;20387;-71
2023/04/15 10:25:46;;;;;;;28.08;26.52;;;11.20;99.90;;;;;;5072503;28;20059;-71
2023/04/15 10:28:12;;;;;;;25.77;24.27;;;11.20;99.90;;;;;;5089544;28;20048;-71
2023/04/15 10:30:38;;;;;;;30.65;29.05;;;11.10;99.90;;;;;;5091937;28;20035;-71
2023/04/15 10:33:04;;;;;;;25.77;24.23;;;11.20;99.90;;;;;;5089809;28;20491;-71
2023/04/15 10:35:32;;;;;;;22.33;21.05;;;11.20;99.90;;;;;;5105198;28;20134;-72
2023/04/15 10:37:58;;;;;;;26.40;24.88;;;11.20;99.90;;;;;;5090479;28;20521;-71
2023/04/15 10:40:27;;;;;;;27.00;25.48;;;11.10;99.90;;;;;;5080981;28;20039;-71
2023/04/15 10:42:54;;;;;;;29.67;28.00;;;11.00;99.90;;;;;;5074227;28;20044;-71
2023/04/15 10:45:20;;;;;;;26.20;24.70;;;10.90;99.90;;;;;;5075559;28;20451;-71
2023/04/15 10:47:50;;;;;;;28.42;26.90;;;10.80;99.90;;;;;;5091495;27;20074;-71
2023/04/15 10:50:18;;;;;;;30.33;28.63;;;10.70;99.90;;;;;;5088047;28;20038;-71
2023/04/15 10:52:43;;;;;;;37.53;35.55;;;10.60;99.90;;;;;;5091113;28;20790;-71
2023/04/15 10:55:09;;;;;;;38.75;36.45;;;10.60;99.90;;;;;;5107451;27;20138;-71
2023/04/15 10:57:38;;;;;;;31.00;29.17;;;10.80;99.90;;;;;;5067757;28;20043;-71
2023/04/15 11:00:15;;;;;;;34.38;32.38;;;10.80;99.90;;;;;;5072326;28;20057;-71
2023/04/15 11:02:57;;;;;;;50.70;48.20;;;10.80;99.90;;;;;;5074820;28;20127;-71
2023/04/15 11:05:41;;;;;;;30.58;28.88;;;10.70;99.90;;;;;;5121571;27;20543;-72
2023/04/15 11:08:11;;;;;;;64.15;58.90;;;10.70;99.90;;;;;;5088122;28;20071;-71
2023/04/15 11:10:36;;;;;;;31.52;29.83;;;10.80;99.90;;;;;;5107340;28;20075;-72
2023/04/15 11:13:15;;;;;;;31.08;29.48;;;10.70;99.90;;;;;;5092638;28;20066;-71
2023/04/15 11:15:43;;;;;;;30.77;29.08;;;10.80;99.90;;;;;;5080155;28;20849;-71
2023/04/15 11:18:23;;;;;;;30.70;28.80;;;10.70;99.90;;;;;;5074817;28;20046;-71
2023/04/15 11:20:55;;;;;;;37.05;34.80;;;10.70;99.90;;;;;;5089197;28;20486;-71
2023/04/15 11:23:28;;;;;;;39.92;37.92;;;10.70;99.90;;;;;;5083921;28;20058;-71
2023/04/15 11:25:56;;;;;;;40.28;37.95;;;10.70;99.90;;;;;;5121913;27;20048;-71
2023/04/15 11:28:25;;;;;;;34.65;32.42;;;10.70;99.90;;;;;;5088208;28;20060;-71
2023/04/15 11:30:51;;;;;;;46.33;43.80;;;10.70;99.90;;;;;;5090797;28;20105;-71
2023/04/15 11:33:16;;;;;;;40.72;38.30;;;10.80;99.90;;;;;;5104566;28;20039;-71
2023/04/15 11:35:42;;;;;;;47.15;44.60;;;10.80;99.90;;;;;;5073460;28;20075;-71
2023/04/15 11:38:13;;;;;;;41.97;39.67;;;10.80;99.90;;;;;;5092623;28;20043;-71
2023/04/15 11:40:40;;;;;;;45.83;43.38;;;10.70;99.90;;;;;;5065192;28;20047;-71
2023/04/15 11:43:19;;;;;;;34.40;32.60;;;10.70;99.90;;;;;;5092325;28;20066;-71
2023/04/15 11:46:00;;;;;;;35.13;32.85;;;10.80;99.90;;;;;;5072146;28;20427;-71
2023/04/15 11:48:26;;;;;;;29.90;28.17;;;10.80;99.90;;;;;;5088279;28;20383;-71
2023/04/15 11:51:00;;;;;;;40.38;38.20;;;10.90;99.90;;;;;;5088828;28;20554;-71
2023/04/15 11:53:48;;;;;;;43.33;41.05;;;10.80;99.90;;;;;;5086683;28;20039;-71
2023/04/15 11:56:20;;;;;;;38.38;36.05;;;10.90;99.90;;;;;;5086625;28;20960;-71
2023/04/15 11:58:49;;;;;;;36.08;34.08;;;10.90;99.90;;;;;;5081436;28;20077;-71
2023/04/15 12:01:15;;;;;;;41.53;39.33;;;10.90;99.90;;;;;;5073511;27;20046;-71
2023/04/15 12:03:48;;;;;;;36.70;34.67;;;10.90;99.90;;;;;;5092042;28;20043;-71
2023/04/15 12:06:18;;;;;;;34.65;32.65;;;10.90;99.90;;;;;;5072263;28;20445;-71
2023/04/15 12:09:06;;;;;;;117.10;106.93;;;10.80;99.90;;;;;;5088221;28;20490;-71
2023/04/15 12:11:33;;;;;;;35.28;33.20;;;10.70;99.90;;;;;;5088529;28;20047;-71
2023/04/15 12:14:21;;;;;;;41.70;39.40;;;10.60;99.90;;;;;;5087795;28;20082;-71
2023/04/15 12:16:49;;;;;;;42.83;40.45;;;10.50;99.90;;;;;;5064555;27;20040;-71
2023/04/15 12:19:17;;;;;;;42.88;40.65;;;10.40;99.90;;;;;;5121599;27;20049;-71
2023/04/15 12:21:47;;;;;;;41.65;39.17;;;10.40;99.90;;;;;;5073377;27;20054;-71
2023/04/15 12:24:13;;;;;;;47.97;45.03;;;10.40;99.90;;;;;;5074645;28;20477;-71
2023/04/15 12:26:45;;;;;;;47.85;45.55;;;10.40;99.90;;;;;;5089069;28;20044;-71
2023/04/15 12:29:13;;;;;;;37.78;35.67;;;10.30;99.90;;;;;;5070048;28;20059;-71
2023/04/15 12:31:51;;;;;;;40.85;38.67;;;10.30;99.90;;;;;;5089725;28;20459;-71